createdAt,value
2023-04-14T00:01:02.494Z,6.86
2023-04-14T00:03:28.859Z,6.80
2023-04-14T00:05:55.261Z,6.73
2023-04-14T00:08:21.487Z,6.70
2023-04-14T00:10:47.707Z,6.69
2023-04-14T00:13:13.926Z,6.70
2023-04-14T00:15:40.433Z,6.65
2023-04-14T00:18:06.671Z,6.64
2023-04-14T00:20:32.908Z,6.61
2023-04-14T00:22:59.106Z,6.48
2023-04-14T00:25:25.330Z,6.36
2023-04-14T00:27:51.551Z,6.40
2023-04-14T00:30:17.784Z,6.42
2023-04-14T00:32:44.097Z,6.41
2023-04-14T00:35:10.342Z,6.27
2023-04-14T00:37:36.571Z,6.24
2023-04-14T00:40:02.815Z,6.31
2023-04-14T00:42:29.039Z,6.33
2023-04-14T00:44:55.239Z,6.35
2023-04-14T00:47:21.462Z,6.38
2023-04-14T00:49:47.683Z,6.41
2023-04-14T00:52:13.927Z,6.40
2023-04-14T00:54:40.149Z,6.41
2023-04-14T00:57:06.364Z,6.40
2023-04-14T00:59:32.684Z,6.36
2023-04-14T01:01:59.019Z,6.34
2023-04-14T01:04:31.322Z,6.42
2023-04-14T01:07:06.933Z,6.38
2023-04-14T01:09:33.135Z,6.35
2023-04-14T01:12:05.507Z,6.37
2023-04-14T01:14:41.655Z,6.31
2023-04-14T01:17:09.414Z,6.36
2023-04-14T01:19:57.420Z,6.37
2023-04-14T01:22:23.628Z,6.30
2023-04-14T01:25:00.367Z,6.26
2023-04-14T01:27:32.335Z,5.95
2023-04-14T01:29:58.478Z,5.92
2023-04-14T01:32:24.717Z,5.94
2023-04-14T01:34:51.645Z,5.91
2023-04-14T01:37:18.988Z,5.88
2023-04-14T01:39:48.783Z,6.02
2023-04-14T01:42:15.602Z,6.12
2023-04-14T01:44:41.825Z,6.14
2023-04-14T01:47:08.687Z,6.19
2023-04-14T01:49:35.467Z,6.20
2023-04-14T01:52:01.997Z,6.20
2023-04-14T01:54:28.203Z,6.23
2023-04-14T01:56:54.410Z,6.22
2023-04-14T01:59:20.606Z,6.18
2023-04-14T02:01:46.924Z,5.95
2023-04-14T02:04:13.205Z,6.04
2023-04-14T02:06:39.446Z,6.13
2023-04-14T02:09:05.650Z,6.16
2023-04-14T02:11:31.891Z,6.18
2023-04-14T02:13:58.097Z,6.20
2023-04-14T02:16:24.329Z,6.20
2023-04-14T02:18:50.556Z,6.21
2023-04-14T02:21:17.134Z,6.20
2023-04-14T02:23:43.343Z,6.11
2023-04-14T02:26:19.924Z,6.10
2023-04-14T02:28:48.819Z,6.03
2023-04-14T02:31:15.069Z,6.05
2023-04-14T02:33:41.299Z,6.03
2023-04-14T02:36:16.062Z,6.02
2023-04-14T02:38:44.150Z,6.01
2023-04-14T02:41:20.681Z,5.99
2023-04-14T02:44:07.110Z,5.96
2023-04-14T02:46:35.014Z,5.93
2023-04-14T02:49:01.432Z,5.93
2023-04-14T02:51:27.998Z,5.92
2023-04-14T02:53:54.211Z,5.79
2023-04-14T02:56:20.424Z,5.81
2023-04-14T02:58:46.624Z,5.77
2023-04-14T03:01:12.868Z,5.71
2023-04-14T03:03:39.099Z,5.67
2023-04-14T03:06:06.158Z,5.64
2023-04-14T03:08:32.803Z,5.64
2023-04-14T03:10:59.009Z,5.64
2023-04-14T03:13:25.531Z,5.62
2023-04-14T03:15:51.889Z,5.59
2023-04-14T03:18:18.152Z,5.55
2023-04-14T03:20:44.383Z,5.44
2023-04-14T03:23:10.574Z,5.40
2023-04-14T03:25:36.788Z,5.40
2023-04-14T03:28:03.982Z,5.45
2023-04-14T03:30:30.196Z,5.46
2023-04-14T03:32:57.479Z,5.46
2023-04-14T03:35:23.744Z,5.46
2023-04-14T03:37:49.975Z,5.42
2023-04-14T03:40:16.179Z,5.35
2023-04-14T03:42:42.474Z,5.32
2023-04-14T03:45:08.948Z,5.18
2023-04-14T03:47:35.185Z,5.18
2023-04-14T03:50:01.680Z,5.20
2023-04-14T03:52:34.205Z,5.22
2023-04-14T03:55:00.805Z,5.24
2023-04-14T03:57:27.019Z,5.25
2023-04-14T03:59:53.228Z,5.20
2023-04-14T04:02:21.323Z,5.19
2023-04-14T04:04:47.673Z,4.98
2023-04-14T04:07:14.043Z,5.03
2023-04-14T04:09:40.262Z,5.10
2023-04-14T04:12:06.680Z,5.19
2023-04-14T04:14:32.906Z,5.08
2023-04-14T04:16:59.682Z,5.16
2023-04-14T04:19:25.918Z,5.20
2023-04-14T04:21:52.834Z,5.20
2023-04-14T04:24:19.634Z,5.11
2023-04-14T04:26:45.869Z,5.13
2023-04-14T04:29:12.096Z,5.20
2023-04-14T04:31:39.172Z,5.22
2023-04-14T04:34:05.433Z,5.22
2023-04-14T04:36:31.695Z,5.12
2023-04-14T04:38:57.929Z,5.16
2023-04-14T04:41:26.155Z,5.22
2023-04-14T04:43:52.383Z,5.22
2023-04-14T04:46:18.610Z,5.16
2023-04-14T04:48:44.849Z,5.07
2023-04-14T04:51:11.099Z,4.96
2023-04-14T04:53:37.305Z,5.05
2023-04-14T04:56:03.595Z,5.03
2023-04-14T04:58:29.795Z,5.13
2023-04-14T05:00:56.008Z,5.23
2023-04-14T05:03:22.341Z,5.25
2023-04-14T05:05:48.658Z,5.23
2023-04-14T05:08:15.891Z,5.30
2023-04-14T05:10:42.093Z,5.33
2023-04-14T05:13:08.404Z,5.36
2023-04-14T05:15:34.638Z,5.41
2023-04-14T05:18:00.914Z,5.44
2023-04-14T05:20:27.118Z,5.51
2023-04-14T05:22:53.387Z,5.51
2023-04-14T05:25:19.618Z,5.52
2023-04-14T05:27:45.843Z,5.47
2023-04-14T05:30:12.343Z,5.44
2023-04-14T05:32:38.619Z,5.40
2023-04-14T05:35:04.973Z,5.30
2023-04-14T05:37:31.203Z,5.31
2023-04-14T05:39:57.419Z,5.46
2023-04-14T05:45:03.956Z,5.65
2023-04-14T05:47:30.229Z,5.62
2023-04-14T05:49:56.456Z,5.67
2023-04-14T05:52:22.697Z,5.75
2023-04-14T05:54:53.021Z,5.73
2023-04-14T05:57:19.259Z,5.73
2023-04-14T05:59:45.471Z,5.72
2023-04-14T06:02:11.760Z,5.73
2023-04-14T06:04:38.184Z,5.75
2023-04-14T06:07:04.513Z,5.75
2023-04-14T06:09:30.741Z,5.78
2023-04-14T06:11:56.996Z,5.91
2023-04-14T06:14:23.227Z,6.10
2023-04-14T06:16:49.526Z,6.25
2023-04-14T06:19:15.780Z,6.46
2023-04-14T06:21:42.022Z,6.62
2023-04-14T06:24:08.225Z,6.76
2023-04-14T06:26:44.699Z,6.86
2023-04-14T06:29:10.912Z,6.97
2023-04-14T06:31:37.149Z,7.03
2023-04-14T06:34:03.383Z,7.13
2023-04-14T06:36:35.918Z,7.20
2023-04-14T06:39:03.370Z,7.26
2023-04-14T06:41:29.797Z,7.28
2023-04-14T06:43:56.014Z,7.33
2023-04-14T06:46:22.392Z,7.37
2023-04-14T06:48:48.622Z,7.44
2023-04-14T06:51:14.839Z,7.46
2023-04-14T06:53:41.043Z,7.55
2023-04-14T06:56:07.441Z,7.58
2023-04-14T06:58:33.748Z,7.63
2023-04-14T07:01:00.400Z,7.73
2023-04-14T07:03:26.874Z,7.75
2023-04-14T07:05:53.180Z,7.90
2023-04-14T07:08:19.555Z,8.00
2023-04-14T07:10:45.899Z,8.06
2023-04-14T07:13:12.149Z,8.07
2023-04-14T07:15:38.410Z,8.18
2023-04-14T07:18:04.667Z,8.24
2023-04-14T07:20:30.922Z,8.26
2023-04-14T07:22:57.147Z,8.22
2023-04-14T07:25:23.371Z,8.26
2023-04-14T07:28:02.161Z,8.26
2023-04-14T07:30:29.605Z,8.36
2023-04-14T07:32:56.857Z,8.43
2023-04-14T07:35:24.438Z,8.46
2023-04-14T07:37:50.662Z,8.47
2023-04-14T07:40:16.868Z,8.51
2023-04-14T07:42:43.099Z,8.53
2023-04-14T07:45:09.692Z,8.62
2023-04-14T07:47:35.968Z,8.62
2023-04-14T07:50:02.213Z,8.70
2023-04-14T07:52:28.432Z,8.75
2023-04-14T07:54:54.630Z,8.82
2023-04-14T07:57:21.014Z,8.79
2023-04-14T07:59:47.227Z,8.86
2023-04-14T08:02:13.534Z,8.86
2023-04-14T08:04:39.803Z,8.93
2023-04-14T08:07:06.032Z,9.02
2023-04-14T08:09:32.243Z,9.06
2023-04-14T08:11:58.465Z,9.05
2023-04-14T08:14:24.692Z,9.06
2023-04-14T08:16:51.094Z,9.13
2023-04-14T08:19:17.317Z,9.13
2023-04-14T08:21:43.534Z,9.20
2023-04-14T08:24:09.751Z,9.28
2023-04-14T08:26:35.958Z,9.27
2023-04-14T08:29:02.621Z,9.36
2023-04-14T08:31:29.241Z,9.46
2023-04-14T08:33:55.523Z,9.45
2023-04-14T08:36:21.729Z,9.49
2023-04-14T08:38:47.973Z,9.42
2023-04-14T08:41:14.210Z,9.49
2023-04-14T08:43:40.416Z,9.66
2023-04-14T08:46:06.697Z,9.71
2023-04-14T08:48:32.948Z,9.68
2023-04-14T08:50:59.124Z,9.65
2023-04-14T08:53:25.338Z,9.72
2023-04-14T08:55:51.570Z,9.77
2023-04-14T08:58:17.774Z,9.74
2023-04-14T09:00:44.006Z,9.64
2023-04-14T09:03:10.931Z,9.54
2023-04-14T09:05:37.491Z,9.47
2023-04-14T09:08:03.816Z,9.44
2023-04-14T09:10:30.014Z,9.55
2023-04-14T09:12:56.236Z,9.58
2023-04-14T09:15:22.440Z,9.49
2023-04-14T09:17:48.742Z,9.54
2023-04-14T09:20:37.370Z,9.48
2023-04-14T09:23:01.210Z,9.52
2023-04-14T09:25:27.437Z,9.60
2023-04-14T09:27:53.669Z,9.73
2023-04-14T09:30:19.911Z,9.74
2023-04-14T09:32:46.143Z,9.68
2023-04-14T09:35:12.370Z,9.82
2023-04-14T09:37:42.263Z,9.78
2023-04-14T09:40:08.708Z,9.79
2023-04-14T09:42:38.142Z,9.66
2023-04-14T09:45:04.529Z,9.53
2023-04-14T09:47:30.854Z,9.56
2023-04-14T09:49:57.727Z,9.52
2023-04-14T09:52:26.545Z,9.50
2023-04-14T09:54:54.622Z,9.53
2023-04-14T09:57:26.841Z,9.47
2023-04-14T09:59:53.045Z,9.36
2023-04-14T10:02:19.413Z,9.33
2023-04-14T10:04:45.736Z,9.33
2023-04-14T10:07:11.978Z,9.30
2023-04-14T10:09:38.183Z,9.38
2023-04-14T10:12:09.750Z,9.39
2023-04-14T10:14:36.459Z,9.42
2023-04-14T10:17:02.675Z,9.40
2023-04-14T10:19:29.138Z,9.35
2023-04-14T10:21:55.401Z,9.32
2023-04-14T10:24:21.607Z,9.35
2023-04-14T10:26:47.873Z,9.37
2023-04-14T10:29:14.074Z,9.32
2023-04-14T10:31:40.362Z,9.34
2023-04-14T10:34:15.805Z,9.30
2023-04-14T10:36:42.265Z,9.34
2023-04-14T10:39:08.529Z,9.36
2023-04-14T10:41:43.856Z,9.43
2023-04-14T10:44:29.052Z,9.46
2023-04-14T10:46:55.719Z,9.46
2023-04-14T10:49:24.004Z,9.53
2023-04-14T10:51:50.253Z,9.56
2023-04-14T10:54:16.780Z,9.61
2023-04-14T10:56:43.648Z,9.48
2023-04-14T10:59:09.860Z,9.48
2023-04-14T11:01:36.251Z,9.51
2023-04-14T11:04:16.646Z,9.57
2023-04-14T11:06:45.968Z,9.59
2023-04-14T11:09:41.268Z,9.69
2023-04-14T11:12:25.830Z,9.75
2023-04-14T11:14:55.611Z,9.78
2023-04-14T11:17:21.995Z,9.73
2023-04-14T11:19:48.317Z,9.70
2023-04-14T11:22:14.540Z,9.65
2023-04-14T11:24:40.951Z,9.59
2023-04-14T11:27:07.880Z,9.65
2023-04-14T11:29:34.072Z,9.69
2023-04-14T11:32:01.117Z,9.65
2023-04-14T11:34:27.331Z,9.61
2023-04-14T11:36:54.154Z,9.55
2023-04-14T11:39:20.377Z,9.35
2023-04-14T11:41:46.695Z,9.42
2023-04-14T11:44:16.656Z,9.39
2023-04-14T11:46:42.926Z,9.37
2023-04-14T11:49:09.176Z,9.43
2023-04-14T11:51:35.448Z,9.48
2023-04-14T11:54:01.659Z,9.66
2023-04-14T11:56:27.871Z,9.58
2023-04-14T11:59:00.951Z,9.68
2023-04-14T12:01:28.155Z,9.66
2023-04-14T12:03:54.487Z,9.74
2023-04-14T12:06:20.791Z,9.84
2023-04-14T12:08:53.610Z,9.85
2023-04-14T12:11:19.864Z,9.71
2023-04-14T12:13:46.324Z,9.75
2023-04-14T12:16:12.862Z,9.76
2023-04-14T12:18:39.187Z,9.67
2023-04-14T12:21:07.299Z,9.64
2023-04-14T12:23:36.043Z,9.48
2023-04-14T12:26:02.350Z,9.60
2023-04-14T12:28:28.684Z,9.54
2023-04-14T12:31:01.771Z,9.68
2023-04-14T12:33:28.514Z,9.88
2023-04-14T12:36:03.337Z,9.80
2023-04-14T12:38:29.537Z,9.66
2023-04-14T12:40:55.809Z,9.60
2023-04-14T12:43:28.669Z,9.37
2023-04-14T12:45:54.879Z,9.36
2023-04-14T12:48:21.088Z,9.37
2023-04-14T12:50:47.357Z,9.14
2023-04-14T12:53:23.194Z,9.11
2023-04-14T12:56:02.923Z,9.08
2023-04-14T12:58:29.235Z,9.13
2023-04-14T13:00:55.445Z,9.13
2023-04-14T13:03:21.779Z,9.15
2023-04-14T13:05:48.227Z,9.15
2023-04-14T13:08:14.431Z,9.10
2023-04-14T13:10:40.656Z,9.09
2023-04-14T13:13:06.869Z,9.03
2023-04-14T13:16:13.741Z,8.92
2023-04-14T13:18:19.323Z,8.76
2023-04-14T13:20:52.145Z,8.66
2023-04-14T13:23:18.356Z,8.52
2023-04-14T13:25:44.597Z,8.54
2023-04-14T13:28:10.816Z,8.64
2023-04-14T13:30:39.353Z,8.65
2023-04-14T13:33:05.605Z,8.72
2023-04-14T13:35:31.832Z,8.59
2023-04-14T13:37:58.057Z,8.59
2023-04-14T13:40:24.264Z,8.40
2023-04-14T13:42:50.478Z,8.33
2023-04-14T13:45:16.759Z,8.35
2023-04-14T13:47:46.426Z,8.28
2023-04-14T13:50:12.663Z,8.19
2023-04-14T13:52:38.883Z,8.20
2023-04-14T13:55:05.248Z,8.06
2023-04-14T13:57:31.458Z,8.11
2023-04-14T13:59:57.657Z,8.11
2023-04-14T14:02:24.161Z,8.09
2023-04-14T14:04:50.585Z,8.13
2023-04-14T14:07:16.809Z,8.13
2023-04-14T14:09:43.019Z,8.09
2023-04-14T14:12:10.514Z,8.13
2023-04-14T14:14:36.707Z,8.10
2023-04-14T14:17:02.939Z,8.15
2023-04-14T14:19:29.187Z,8.06
2023-04-14T14:21:55.390Z,8.03
2023-04-14T14:24:21.628Z,8.11
2023-04-14T14:26:47.848Z,7.97
2023-04-14T14:29:14.069Z,7.80
2023-04-14T14:31:40.324Z,7.85
2023-04-14T14:34:06.997Z,7.92
2023-04-14T14:36:33.230Z,7.94
2023-04-14T14:38:59.474Z,7.97
2023-04-14T14:41:25.719Z,7.94
2023-04-14T14:43:51.930Z,8.02
2023-04-14T14:46:18.184Z,7.89
2023-04-14T14:48:44.516Z,7.82
2023-04-14T14:51:10.726Z,7.76
2023-04-14T14:53:36.888Z,7.63
2023-04-14T14:56:03.104Z,7.62
2023-04-14T14:58:29.333Z,7.62
2023-04-14T15:00:55.536Z,7.56
2023-04-14T15:03:21.841Z,7.56
2023-04-14T15:05:48.529Z,7.56
2023-04-14T15:08:14.754Z,7.53
2023-04-14T15:10:43.926Z,7.42
2023-04-14T15:13:10.150Z,7.39
2023-04-14T15:15:36.365Z,7.36
2023-04-14T15:18:02.631Z,7.30
2023-04-14T15:20:28.861Z,7.29
2023-04-14T15:22:55.079Z,7.25
2023-04-14T15:25:21.289Z,7.17
2023-04-14T15:27:47.510Z,7.10
2023-04-14T15:30:14.567Z,7.11
2023-04-14T15:32:40.901Z,7.10
2023-04-14T15:35:07.341Z,7.13
2023-04-14T15:37:33.546Z,7.08
2023-04-14T15:39:59.828Z,7.11
2023-04-14T15:42:26.063Z,7.13
2023-04-14T15:44:52.433Z,7.08
2023-04-14T15:47:18.637Z,7.12
2023-04-14T15:49:48.238Z,7.10
2023-04-14T15:52:16.256Z,7.07
2023-04-14T15:54:42.450Z,7.06
2023-04-14T15:57:08.647Z,7.06
2023-04-14T15:59:34.854Z,7.03
2023-04-14T16:02:01.128Z,6.98
2023-04-14T16:04:27.579Z,7.00
2023-04-14T16:06:53.995Z,7.01
2023-04-14T16:09:20.206Z,6.98
2023-04-14T16:11:46.467Z,6.98
2023-04-14T16:14:12.672Z,6.99
2023-04-14T16:16:38.890Z,7.02
2023-04-14T16:19:05.173Z,7.00
2023-04-14T16:21:31.365Z,6.91
2023-04-14T16:23:57.588Z,6.97
2023-04-14T16:26:23.786Z,6.94
2023-04-14T16:28:49.997Z,6.91
2023-04-14T16:31:16.215Z,6.94
2023-04-14T16:33:42.493Z,6.90
2023-04-14T16:36:08.704Z,6.90
2023-04-14T16:38:34.936Z,6.94
2023-04-14T16:41:01.242Z,6.92
2023-04-14T16:43:27.452Z,6.91
2023-04-14T16:45:54.049Z,6.91
2023-04-14T16:48:20.311Z,6.93
2023-04-14T16:50:46.527Z,6.93
2023-04-14T16:53:13.044Z,6.91
2023-04-14T16:55:39.397Z,6.87
2023-04-14T16:58:05.608Z,6.94
2023-04-14T17:00:31.798Z,6.90
2023-04-14T17:02:58.171Z,6.94
2023-04-14T17:05:24.491Z,6.92
2023-04-14T17:07:50.677Z,6.92
2023-04-14T17:10:16.885Z,6.92
2023-04-14T17:12:43.077Z,6.88
2023-04-14T17:15:09.620Z,6.89
2023-04-14T17:17:35.854Z,6.87
2023-04-14T17:20:02.664Z,6.87
2023-04-14T17:22:28.871Z,6.86
2023-04-14T17:24:55.078Z,6.85
2023-04-14T17:27:21.279Z,6.84
2023-04-14T17:29:47.504Z,6.84
2023-04-14T17:32:13.860Z,6.80
2023-04-14T17:34:40.087Z,6.76
2023-04-14T17:37:06.286Z,6.78
2023-04-14T17:39:32.534Z,6.75
2023-04-14T17:41:58.745Z,6.73
2023-04-14T17:44:31.708Z,6.72
2023-04-14T17:46:58.079Z,6.71
2023-04-14T17:49:24.309Z,6.70
2023-04-14T17:51:50.513Z,6.71
2023-04-14T17:54:16.728Z,6.71
2023-04-14T17:56:42.922Z,6.71
2023-04-14T17:59:09.134Z,6.68
2023-04-14T18:01:35.435Z,6.70
2023-04-14T18:04:01.837Z,6.71
2023-04-14T18:06:28.156Z,6.72
2023-04-14T18:08:54.354Z,6.72
2023-04-14T18:11:20.561Z,6.70
2023-04-14T18:13:46.763Z,6.72
2023-04-14T18:16:12.960Z,6.74
2023-04-14T18:18:39.180Z,6.70
2023-04-14T18:21:05.579Z,6.68
2023-04-14T18:23:31.845Z,6.69
2023-04-14T18:28:27.945Z,6.69
2023-04-14T18:30:54.482Z,6.69
2023-04-14T18:33:20.911Z,6.69
2023-04-14T18:35:50.458Z,6.70
2023-04-14T18:38:16.695Z,6.70
2023-04-14T18:40:42.928Z,6.71
2023-04-14T18:43:09.133Z,6.71
2023-04-14T18:45:35.336Z,6.72
2023-04-14T18:48:01.592Z,6.75
2023-04-14T18:50:28.320Z,6.75
2023-04-14T18:52:54.532Z,6.74
2023-04-14T18:55:20.722Z,6.77
2023-04-14T18:57:46.944Z,6.80
2023-04-14T19:00:13.248Z,6.79
2023-04-14T19:02:39.758Z,6.80
2023-04-14T19:05:06.344Z,6.83
2023-04-14T19:07:32.590Z,6.82
2023-04-14T19:09:58.791Z,6.83
2023-04-14T19:12:28.383Z,6.83
2023-04-14T19:14:55.184Z,6.84
2023-04-14T19:17:21.406Z,6.89
2023-04-14T19:19:47.604Z,6.91
2023-04-14T19:22:13.828Z,6.88
2023-04-14T19:24:40.021Z,6.88
2023-04-14T19:27:06.231Z,6.88
2023-04-14T19:29:32.441Z,6.87
2023-04-14T19:31:58.680Z,6.89
2023-04-14T19:34:24.891Z,6.91
2023-04-14T19:36:51.099Z,6.95
2023-04-14T19:39:17.289Z,6.96
2023-04-14T19:41:43.492Z,6.98
2023-04-14T19:44:09.686Z,6.98
2023-04-14T19:46:36.009Z,6.99
2023-04-14T19:49:02.597Z,6.99
2023-04-14T19:51:29.329Z,7.01
2023-04-14T19:53:55.540Z,7.00
2023-04-14T19:56:21.745Z,7.02
2023-04-14T19:58:47.951Z,7.03
2023-04-14T20:01:14.197Z,7.02
2023-04-14T20:03:40.521Z,7.03
2023-04-14T20:06:26.610Z,7.04
2023-04-14T20:08:52.806Z,7.08
2023-04-14T20:11:19.396Z,7.06
2023-04-14T20:13:45.620Z,7.05
2023-04-14T20:16:11.907Z,7.06
2023-04-14T20:18:38.155Z,7.06
2023-04-14T20:21:04.359Z,7.06
2023-04-14T20:23:30.574Z,7.08
2023-04-14T20:25:56.800Z,7.10
2023-04-14T20:28:23.162Z,7.11
2023-04-14T20:30:52.859Z,7.14
2023-04-14T20:33:19.122Z,7.14
2023-04-14T20:35:45.379Z,7.14
2023-04-14T20:38:13.275Z,7.16
2023-04-14T20:40:40.864Z,7.14
2023-04-14T20:43:07.104Z,7.16
2023-04-14T20:45:33.541Z,7.17
2023-04-14T20:47:59.859Z,7.17
2023-04-14T20:50:26.104Z,7.16
2023-04-14T20:52:52.331Z,7.15
2023-04-14T20:55:18.553Z,7.16
2023-04-14T20:57:44.868Z,7.16
2023-04-14T21:00:11.477Z,7.18
2023-04-14T21:02:37.942Z,7.16
2023-04-14T21:05:04.459Z,7.18
2023-04-14T21:07:30.671Z,7.17
2023-04-14T21:09:56.873Z,7.13
2023-04-14T21:12:23.082Z,7.19
2023-04-14T21:15:40.713Z,7.15
2023-04-14T21:17:38.527Z,7.22
2023-04-14T21:20:04.992Z,7.24
2023-04-14T21:22:31.382Z,7.25
2023-04-14T21:24:57.596Z,7.17
2023-04-14T21:27:23.815Z,7.20
2023-04-14T21:29:50.014Z,7.18
2023-04-14T21:32:16.218Z,7.15
2023-04-14T21:34:42.416Z,7.20
2023-04-14T21:37:08.692Z,7.20
2023-04-14T21:39:34.903Z,7.20
2023-04-14T21:42:01.139Z,7.26
2023-04-14T21:44:27.437Z,7.21
2023-04-14T21:46:54.008Z,7.19
2023-04-14T21:49:20.199Z,7.15
2023-04-14T21:51:46.427Z,7.15
2023-04-14T21:54:12.660Z,7.16
2023-04-14T21:56:38.924Z,7.13
2023-04-14T21:59:05.151Z,7.12
2023-04-14T22:01:31.404Z,7.08
2023-04-14T22:03:57.720Z,7.11
2023-04-14T22:06:24.110Z,7.08
2023-04-14T22:08:50.455Z,7.08
2023-04-14T22:11:17.120Z,7.12
2023-04-14T22:13:43.352Z,7.11
2023-04-14T22:16:09.581Z,7.11
2023-04-14T22:18:35.906Z,7.07
2023-04-14T22:21:02.178Z,7.12
2023-04-14T22:23:28.435Z,7.11
2023-04-14T22:25:54.625Z,7.10
2023-04-14T22:28:20.829Z,7.11
2023-04-14T22:30:47.094Z,7.12
2023-04-14T22:33:13.350Z,7.13
2023-04-14T22:35:39.555Z,7.17
2023-04-14T22:38:05.771Z,7.24
2023-04-14T22:40:32.008Z,7.29
2023-04-14T22:42:58.213Z,7.29
2023-04-14T22:45:24.442Z,7.29
2023-04-14T22:47:50.727Z,7.31
2023-04-14T22:50:16.926Z,7.24
2023-04-14T22:52:43.143Z,7.20
2023-04-14T22:55:09.397Z,7.22
2023-04-14T22:57:35.604Z,7.27
2023-04-14T23:00:01.825Z,7.28
2023-04-14T23:02:28.189Z,7.28
2023-04-14T23:04:54.528Z,7.28
2023-04-14T23:07:20.750Z,7.33
2023-04-14T23:09:49.996Z,7.30
2023-04-14T23:12:16.205Z,7.28
2023-04-14T23:14:42.458Z,7.34
2023-04-14T23:17:08.754Z,7.33
2023-04-14T23:19:34.987Z,7.34
2023-04-14T23:22:01.195Z,7.32
2023-04-14T23:24:27.404Z,7.36
2023-04-14T23:26:53.636Z,7.45
2023-04-14T23:29:19.842Z,7.51
2023-04-14T23:31:46.315Z,7.47
2023-04-14T23:34:12.615Z,7.46
2023-04-14T23:36:38.930Z,7.40
2023-04-14T23:39:05.157Z,7.37
2023-04-14T23:41:31.394Z,7.35
2023-04-14T23:43:57.585Z,7.34
2023-04-14T23:46:24.381Z,7.29
2023-04-14T23:48:50.729Z,7.28
2023-04-14T23:51:21.896Z,7.25
2023-04-14T23:53:48.598Z,7.20
2023-04-14T23:56:14.825Z,7.15
2023-04-14T23:58:41.604Z,7.11
